sensor_id;sensor_type;location;lat;lon;timestamp;pressure;altitude;pressure_sealevel;temperature;humidity
64352;BME280;50680;52.626;-8.668;2023-04-01T00:01:15;100427.66;;;10.87;100.00
64352;BME280;50680;52.626;-8.668;2023-04-01T00:03:43;100433.53;;;10.78;100.00
64352;BME280;50680;52.626;-8.668;2023-04-01T00:06:16;100440.97;;;10.84;100.00
64352;BME280;50680;52.626;-8.668;2023-04-01T00:08:43;100443.31;;;10.62;100.00
64352;BME280;50680;52.626;-8.668;2023-04-01T00:11:11;100434.31;;;10.66;100.00
64352;BME280;50680;52.626;-8.668;2023-04-01T00:13:39;100442.75;;;10.57;100.00
64352;BME280;50680;52.626;-8.668;2023-04-01T00:16:07;100440.84;;;10.73;100.00
64352;BME280;50680;52.626;-8.668;2023-04-01T00:18:46;100438.00;;;10.76;100.00
64352;BME280;50680;52.626;-8.668;2023-04-01T00:21:16;100441.41;;;10.64;100.00
64352;BME280;50680;52.626;-8.668;2023-04-01T00:23:43;100438.31;;;10.71;100.00
64352;BME280;50680;52.626;-8.668;2023-04-01T00:26:10;100433.16;;;10.70;100.00
64352;BME280;50680;52.626;-8.668;2023-04-01T00:28:39;100434.97;;;10.69;100.00
64352;BME280;50680;52.626;-8.668;2023-04-01T00:31:08;100431.03;;;10.62;100.00
64352;BME280;50680;52.626;-8.668;2023-04-01T00:33:35;100435.50;;;10.75;100.00
64352;BME280;50680;52.626;-8.668;2023-04-01T00:36:12;100421.94;;;10.68;100.00
64352;BME280;50680;52.626;-8.668;2023-04-01T00:38:40;100426.41;;;10.80;100.00
64352;BME280;50680;52.626;-8.668;2023-04-01T00:41:09;100426.47;;;10.66;100.00
64352;BME280;50680;52.626;-8.668;2023-04-01T00:43:42;100437.69;;;10.68;100.00
64352;BME280;50680;52.626;-8.668;2023-04-01T00:46:09;100429.19;;;10.50;100.00
64352;BME280;50680;52.626;-8.668;2023-04-01T00:48:38;100437.31;;;10.60;100.00
64352;BME280;50680;52.626;-8.668;2023-04-01T00:51:26;100438.31;;;10.71;100.00
64352;BME280;50680;52.626;-8.668;2023-04-01T00:53:56;100442.00;;;10.54;100.00
64352;BME280;50680;52.626;-8.668;2023-04-01T00:56:30;100433.78;;;10.46;100.00
64352;BME280;50680;52.626;-8.668;2023-04-01T00:59:10;100444.13;;;10.35;100.00
64352;BME280;50680;52.626;-8.668;2023-04-01T01:01:38;100444.38;;;10.45;100.00
64352;BME280;50680;52.626;-8.668;2023-04-01T01:04:05;100443.06;;;10.52;100.00
64352;BME280;50680;52.626;-8.668;2023-04-01T01:07:17;100434.69;;;10.60;100.00
64352;BME280;50680;52.626;-8.668;2023-04-01T01:10:17;100441.75;;;10.45;100.00
64352;BME280;50680;52.626;-8.668;2023-04-01T01:12:49;100437.34;;;10.31;100.00
64352;BME280;50680;52.626;-8.668;2023-04-01T01:26:15;100448.41;;;10.78;100.00
64352;BME280;50680;52.626;-8.668;2023-04-01T01:32:03;100446.13;;;10.86;100.00
64352;BME280;50680;52.626;-8.668;2023-04-01T01:37:23;100446.06;;;11.00;100.00
64352;BME280;50680;52.626;-8.668;2023-04-01T01:39:56;100453.19;;;10.98;100.00
64352;BME280;50680;52.626;-8.668;2023-04-01T01:42:25;100460.13;;;10.99;100.00
64352;BME280;50680;52.626;-8.668;2023-04-01T01:44:55;100458.78;;;11.06;100.00
64352;BME280;50680;52.626;-8.668;2023-04-01T01:47:24;100462.59;;;11.15;100.00
64352;BME280;50680;52.626;-8.668;2023-04-01T01:49:52;100474.56;;;11.19;100.00
64352;BME280;50680;52.626;-8.668;2023-04-01T01:52:22;100469.13;;;11.22;100.00
64352;BME280;50680;52.626;-8.668;2023-04-01T01:54:54;100472.47;;;11.24;100.00
64352;BME280;50680;52.626;-8.668;2023-04-01T01:57:42;100469.38;;;11.45;100.00
64352;BME280;50680;52.626;-8.668;2023-04-01T02:00:12;100468.63;;;11.43;100.00
64352;BME280;50680;52.626;-8.668;2023-04-01T02:02:44;100470.91;;;11.35;100.00
64352;BME280;50680;52.626;-8.668;2023-04-01T02:05:15;100472.72;;;11.34;100.00
64352;BME280;50680;52.626;-8.668;2023-04-01T02:07:48;100474.81;;;11.42;100.00
64352;BME280;50680;52.626;-8.668;2023-04-01T02:10:17;100471.88;;;11.34;100.00
64352;BME280;50680;52.626;-8.668;2023-04-01T02:12:46;100475.63;;;11.29;100.00
64352;BME280;50680;52.626;-8.668;2023-04-01T02:15:15;100477.78;;;11.10;100.00
64352;BME280;50680;52.626;-8.668;2023-04-01T02:17:44;100483.09;;;10.96;100.00
64352;BME280;50680;52.626;-8.668;2023-04-01T02:20:16;100490.09;;;11.22;100.00
64352;BME280;50680;52.626;-8.668;2023-04-01T02:22:49;100483.19;;;11.21;100.00
64352;BME280;50680;52.626;-8.668;2023-04-01T02:25:20;100483.97;;;11.09;100.00
64352;BME280;50680;52.626;-8.668;2023-04-01T02:27:49;100485.06;;;11.19;100.00
64352;BME280;50680;52.626;-8.668;2023-04-01T02:30:17;100492.59;;;11.11;100.00
64352;BME280;50680;52.626;-8.668;2023-04-01T02:32:45;100494.06;;;11.15;100.00
64352;BME280;50680;52.626;-8.668;2023-04-01T02:35:15;100493.81;;;11.05;100.00
64352;BME280;50680;52.626;-8.668;2023-04-01T02:37:43;100502.34;;;11.09;100.00
64352;BME280;50680;52.626;-8.668;2023-04-01T02:40:13;100483.31;;;10.93;100.00
64352;BME280;50680;52.626;-8.668;2023-04-01T02:42:40;100500.97;;;11.03;100.00
64352;BME280;50680;52.626;-8.668;2023-04-01T02:45:08;100503.69;;;11.02;100.00
64352;BME280;50680;52.626;-8.668;2023-04-01T02:47:35;100509.28;;;11.10;100.00
64352;BME280;50680;52.626;-8.668;2023-04-01T02:50:02;100506.94;;;11.05;100.00
64352;BME280;50680;52.626;-8.668;2023-04-01T02:52:29;100514.16;;;11.02;100.00
64352;BME280;50680;52.626;-8.668;2023-04-01T02:54:57;100517.06;;;11.12;100.00
64352;BME280;50680;52.626;-8.668;2023-04-01T02:57:24;100511.66;;;11.00;100.00
64352;BME280;50680;52.626;-8.668;2023-04-01T02:59:51;100514.97;;;10.89;100.00
64352;BME280;50680;52.626;-8.668;2023-04-01T03:02:18;100510.31;;;10.80;100.00
64352;BME280;50680;52.626;-8.668;2023-04-01T03:04:45;100510.41;;;10.79;100.00
64352;BME280;50680;52.626;-8.668;2023-04-01T03:07:12;100519.09;;;10.79;100.00
64352;BME280;50680;52.626;-8.668;2023-04-01T03:09:39;100518.41;;;10.90;100.00
64352;BME280;50680;52.626;-8.668;2023-04-01T03:12:06;100522.00;;;10.89;100.00
64352;BME280;50680;52.626;-8.668;2023-04-01T03:14:33;100520.03;;;10.93;100.00
64352;BME280;50680;52.626;-8.668;2023-04-01T03:17:00;100531.06;;;10.98;100.00
64352;BME280;50680;52.626;-8.668;2023-04-01T03:19:27;100536.34;;;11.10;100.00
64352;BME280;50680;52.626;-8.668;2023-04-01T03:21:54;100525.25;;;10.93;100.00
64352;BME280;50680;52.626;-8.668;2023-04-01T03:24:20;100529.13;;;10.72;100.00
64352;BME280;50680;52.626;-8.668;2023-04-01T03:26:47;100531.56;;;10.76;100.00
64352;BME280;50680;52.626;-8.668;2023-04-01T03:29:15;100527.94;;;10.78;100.00
64352;BME280;50680;52.626;-8.668;2023-04-01T03:31:42;100533.19;;;10.64;100.00
64352;BME280;50680;52.626;-8.668;2023-04-01T03:34:09;100537.81;;;10.46;100.00
64352;BME280;50680;52.626;-8.668;2023-04-01T03:36:37;100546.31;;;10.49;100.00
64352;BME280;50680;52.626;-8.668;2023-04-01T03:39:04;100546.50;;;10.32;100.00
64352;BME280;50680;52.626;-8.668;2023-04-01T03:41:31;100550.41;;;10.25;100.00
64352;BME280;50680;52.626;-8.668;2023-04-01T03:43:58;100553.31;;;10.20;100.00
64352;BME280;50680;52.626;-8.668;2023-04-01T03:46:25;100559.00;;;10.27;100.00
64352;BME280;50680;52.626;-8.668;2023-04-01T03:48:52;100551.41;;;10.22;100.00
64352;BME280;50680;52.626;-8.668;2023-04-01T03:51:19;100556.66;;;10.22;100.00
64352;BME280;50680;52.626;-8.668;2023-04-01T03:53:46;100560.88;;;10.25;100.00
64352;BME280;50680;52.626;-8.668;2023-04-01T03:56:13;100549.28;;;10.14;100.00
64352;BME280;50680;52.626;-8.668;2023-04-01T03:58:39;100557.13;;;10.14;100.00
64352;BME280;50680;52.626;-8.668;2023-04-01T04:01:20;100563.31;;;10.13;100.00
64352;BME280;50680;52.626;-8.668;2023-04-01T04:03:48;100568.16;;;10.05;100.00
64352;BME280;50680;52.626;-8.668;2023-04-01T04:06:17;100577.41;;;9.96;100.00
64352;BME280;50680;52.626;-8.668;2023-04-01T04:08:45;100578.97;;;9.85;100.00
64352;BME280;50680;52.626;-8.668;2023-04-01T04:11:12;100575.22;;;9.74;100.00
64352;BME280;50680;52.626;-8.668;2023-04-01T04:13:40;100585.44;;;9.63;100.00
64352;BME280;50680;52.626;-8.668;2023-04-01T04:16:07;100584.22;;;9.54;100.00
64352;BME280;50680;52.626;-8.668;2023-04-01T04:18:35;100594.94;;;9.50;100.00
64352;BME280;50680;52.626;-8.668;2023-04-01T04:21:03;100603.22;;;9.42;100.00
64352;BME280;50680;52.626;-8.668;2023-04-01T04:23:30;100606.00;;;9.39;100.00
64352;BME280;50680;52.626;-8.668;2023-04-01T04:26:05;100611.31;;;9.37;100.00
64352;BME280;50680;52.626;-8.668;2023-04-01T04:28:32;100611.81;;;9.44;100.00
64352;BME280;50680;52.626;-8.668;2023-04-01T04:31:00;100613.06;;;9.53;100.00
64352;BME280;50680;52.626;-8.668;2023-04-01T04:33:27;100618.97;;;9.56;100.00
64352;BME280;50680;52.626;-8.668;2023-04-01T04:35:58;100623.97;;;9.61;100.00
64352;BME280;50680;52.626;-8.668;2023-04-01T04:38:26;100631.56;;;9.66;100.00
64352;BME280;50680;52.626;-8.668;2023-04-01T04:40:53;100629.06;;;9.78;100.00
64352;BME280;50680;52.626;-8.668;2023-04-01T04:43:21;100638.34;;;9.84;100.00
64352;BME280;50680;52.626;-8.668;2023-04-01T04:45:47;100644.81;;;9.93;100.00
64352;BME280;50680;52.626;-8.668;2023-04-01T04:48:15;100642.63;;;10.01;100.00
64352;BME280;50680;52.626;-8.668;2023-04-01T04:50:49;100647.78;;;10.03;100.00
64352;BME280;50680;52.626;-8.668;2023-04-01T04:53:17;100655.63;;;10.03;100.00
64352;BME280;50680;52.626;-8.668;2023-04-01T04:55:45;100656.66;;;10.00;100.00
64352;BME280;50680;52.626;-8.668;2023-04-01T04:58:12;100657.41;;;10.02;100.00
64352;BME280;50680;52.626;-8.668;2023-04-01T05:00:39;100662.28;;;10.08;100.00
64352;BME280;50680;52.626;-8.668;2023-04-01T05:03:06;100669.97;;;10.11;100.00
64352;BME280;50680;52.626;-8.668;2023-04-01T05:05:33;100675.09;;;9.98;100.00
64352;BME280;50680;52.626;-8.668;2023-04-01T05:08:00;100672.38;;;10.00;100.00
64352;BME280;50680;52.626;-8.668;2023-04-01T05:10:27;100676.31;;;10.07;100.00
64352;BME280;50680;52.626;-8.668;2023-04-01T05:12:54;100679.66;;;9.95;100.00
64352;BME280;50680;52.626;-8.668;2023-04-01T05:15:21;100684.34;;;10.04;100.00
64352;BME280;50680;52.626;-8.668;2023-04-01T05:17:48;100686.03;;;10.05;100.00
64352;BME280;50680;52.626;-8.668;2023-04-01T05:20:16;100688.31;;;10.11;100.00
64352;BME280;50680;52.626;-8.668;2023-04-01T05:22:43;100701.22;;;10.14;100.00
64352;BME280;50680;52.626;-8.668;2023-04-01T05:25:09;100700.66;;;10.09;100.00
64352;BME280;50680;52.626;-8.668;2023-04-01T05:27:36;100707.47;;;10.12;100.00
64352;BME280;50680;52.626;-8.668;2023-04-01T05:30:04;100715.06;;;10.16;100.00
64352;BME280;50680;52.626;-8.668;2023-04-01T05:32:32;100720.50;;;10.13;100.00
64352;BME280;50680;52.626;-8.668;2023-04-01T05:34:58;100721.44;;;10.12;100.00
64352;BME280;50680;52.626;-8.668;2023-04-01T05:37:25;100727.47;;;9.98;100.00
64352;BME280;50680;52.626;-8.668;2023-04-01T05:39:52;100733.72;;;9.96;100.00
64352;BME280;50680;52.626;-8.668;2023-04-01T05:42:19;100736.50;;;9.93;100.00
64352;BME280;50680;52.626;-8.668;2023-04-01T05:44:46;100740.94;;;10.07;100.00
64352;BME280;50680;52.626;-8.668;2023-04-01T05:47:13;100747.38;;;10.01;100.00
64352;BME280;50680;52.626;-8.668;2023-04-01T05:49:39;100748.88;;;10.05;100.00
64352;BME280;50680;52.626;-8.668;2023-04-01T05:52:06;100764.28;;;10.11;100.00
64352;BME280;50680;52.626;-8.668;2023-04-01T05:54:33;100766.38;;;10.05;100.00
64352;BME280;50680;52.626;-8.668;2023-04-01T05:57:00;100781.09;;;10.07;100.00
64352;BME280;50680;52.626;-8.668;2023-04-01T05:59:27;100774.16;;;10.06;100.00
64352;BME280;50680;52.626;-8.668;2023-04-01T06:01:54;100779.56;;;10.03;100.00
64352;BME280;50680;52.626;-8.668;2023-04-01T06:04:20;100782.72;;;9.94;100.00
64352;BME280;50680;52.626;-8.668;2023-04-01T06:06:48;100794.91;;;9.95;100.00
64352;BME280;50680;52.626;-8.668;2023-04-01T06:09:16;100797.50;;;9.95;100.00
64352;BME280;50680;52.626;-8.668;2023-04-01T06:14:42;100808.38;;;10.03;100.00
64352;BME280;50680;52.626;-8.668;2023-04-01T06:23:00;100835.25;;;9.91;100.00
64352;BME280;50680;52.626;-8.668;2023-04-01T06:31:45;100855.38;;;10.22;100.00
64352;BME280;50680;52.626;-8.668;2023-04-01T06:56:40;100914.53;;;10.10;100.00
64352;BME280;50680;52.626;-8.668;2023-04-01T06:59:21;100916.59;;;10.21;100.00
64352;BME280;50680;52.626;-8.668;2023-04-01T07:01:55;100913.78;;;10.24;100.00
64352;BME280;50680;52.626;-8.668;2023-04-01T07:04:29;100918.44;;;10.19;100.00
64352;BME280;50680;52.626;-8.668;2023-04-01T07:08:10;100932.97;;;10.09;100.00
64352;BME280;50680;52.626;-8.668;2023-04-01T07:10:17;100938.53;;;10.19;100.00
64352;BME280;50680;52.626;-8.668;2023-04-01T07:12:49;100943.47;;;10.25;100.00
64352;BME280;50680;52.626;-8.668;2023-04-01T07:15:22;100946.09;;;10.25;100.00
64352;BME280;50680;52.626;-8.668;2023-04-01T07:18:05;100956.09;;;10.34;100.00
64352;BME280;50680;52.626;-8.668;2023-04-01T07:20:37;100955.34;;;10.32;100.00
64352;BME280;50680;52.626;-8.668;2023-04-01T07:23:08;100962.41;;;10.30;100.00
64352;BME280;50680;52.626;-8.668;2023-04-01T07:25:41;100968.63;;;10.27;100.00
64352;BME280;50680;52.626;-8.668;2023-04-01T07:28:15;100971.25;;;10.27;100.00
64352;BME280;50680;52.626;-8.668;2023-04-01T07:33:41;100986.19;;;10.09;100.00
64352;BME280;50680;52.626;-8.668;2023-04-01T07:36:28;101001.59;;;10.15;100.00
64352;BME280;50680;52.626;-8.668;2023-04-01T07:39:12;101003.22;;;10.18;100.00
64352;BME280;50680;52.626;-8.668;2023-04-01T07:47:50;101025.28;;;11.11;100.00
64352;BME280;50680;52.626;-8.668;2023-04-01T07:50:29;101037.31;;;11.29;100.00
64352;BME280;50680;52.626;-8.668;2023-04-01T07:53:12;101038.44;;;11.56;100.00
64352;BME280;50680;52.626;-8.668;2023-04-01T07:55:54;101046.56;;;11.67;100.00
64352;BME280;50680;52.626;-8.668;2023-04-01T08:06:32;101063.22;;;11.66;100.00
64352;BME280;50680;52.626;-8.668;2023-04-01T08:22:45;101105.97;;;11.54;100.00
64352;BME280;50680;52.626;-8.668;2023-04-01T08:25:27;101113.34;;;11.47;100.00
64352;BME280;50680;52.626;-8.668;2023-04-01T08:28:19;101116.56;;;11.52;100.00
64352;BME280;50680;52.626;-8.668;2023-04-01T08:30:52;101122.19;;;11.46;100.00
64352;BME280;50680;52.626;-8.668;2023-04-01T08:33:30;101133.88;;;11.40;100.00
64352;BME280;50680;52.626;-8.668;2023-04-01T08:36:10;101138.34;;;11.38;100.00
64352;BME280;50680;52.626;-8.668;2023-04-01T08:39:03;101137.19;;;11.44;100.00
64352;BME280;50680;52.626;-8.668;2023-04-01T09:00:31;101190.94;;;11.53;100.00
64352;BME280;50680;52.626;-8.668;2023-04-01T09:11:59;101203.25;;;12.59;100.00
64352;BME280;50680;52.626;-8.668;2023-04-01T09:17:43;101216.22;;;12.76;100.00
64352;BME280;50680;52.626;-8.668;2023-04-01T09:26:53;101221.22;;;12.22;100.00
64352;BME280;50680;52.626;-8.668;2023-04-01T09:32:29;101217.47;;;12.40;100.00
64352;BME280;50680;52.626;-8.668;2023-04-01T09:35:20;101231.34;;;12.73;100.00
64352;BME280;50680;52.626;-8.668;2023-04-01T09:40:40;101228.06;;;12.84;100.00
64352;BME280;50680;52.626;-8.668;2023-04-01T09:43:14;101227.91;;;13.15;100.00
64352;BME280;50680;52.626;-8.668;2023-04-01T09:49:04;101242.72;;;13.60;100.00
64352;BME280;50680;52.626;-8.668;2023-04-01T09:51:57;101250.47;;;13.34;100.00
64352;BME280;50680;52.626;-8.668;2023-04-01T09:55:06;101252.72;;;13.26;100.00
64352;BME280;50680;52.626;-8.668;2023-04-01T10:00:28;101261.84;;;13.49;100.00
64352;BME280;50680;52.626;-8.668;2023-04-01T10:20:08;101288.38;;;13.87;100.00
64352;BME280;50680;52.626;-8.668;2023-04-01T10:26:13;101291.34;;;13.68;100.00
64352;BME280;50680;52.626;-8.668;2023-04-01T10:54:20;101348.88;;;13.62;100.00
64352;BME280;50680;52.626;-8.668;2023-04-01T10:56:59;101359.50;;;14.16;100.00
64352;BME280;50680;52.626;-8.668;2023-04-01T10:59:57;101356.69;;;14.46;100.00
64352;BME280;50680;52.626;-8.668;2023-04-01T11:33:30;101434.03;;;13.48;100.00
64352;BME280;50680;52.626;-8.668;2023-04-01T11:41:41;101439.56;;;13.43;100.00
64352;BME280;50680;52.626;-8.668;2023-04-01T11:44:20;101440.53;;;13.57;100.00
64352;BME280;50680;52.626;-8.668;2023-04-01T11:57:59;101472.25;;;13.84;100.00
64352;BME280;50680;52.626;-8.668;2023-04-01T12:01:07;101482.06;;;13.82;100.00
64352;BME280;50680;52.626;-8.668;2023-04-01T12:15:00;101497.19;;;13.92;100.00
64352;BME280;50680;52.626;-8.668;2023-04-01T12:20:38;101509.84;;;14.02;100.00
64352;BME280;50680;52.626;-8.668;2023-04-01T12:23:16;101507.31;;;14.00;100.00
64352;BME280;50680;52.626;-8.668;2023-04-01T12:31:31;101536.94;;;14.61;100.00
64352;BME280;50680;52.626;-8.668;2023-04-01T13:00:17;101574.25;;;14.84;100.00
64352;BME280;50680;52.626;-8.668;2023-04-01T13:09:11;101572.47;;;14.70;100.00
64352;BME280;50680;52.626;-8.668;2023-04-01T13:12:12;101581.34;;;14.69;100.00
64352;BME280;50680;52.626;-8.668;2023-04-01T13:21:15;101606.22;;;14.65;100.00
64352;BME280;50680;52.626;-8.668;2023-04-01T13:26:41;101608.19;;;14.76;100.00
64352;BME280;50680;52.626;-8.668;2023-04-01T13:43:37;101640.59;;;13.60;100.00
64352;BME280;50680;52.626;-8.668;2023-04-01T13:49:36;101660.16;;;13.86;100.00
64352;BME280;50680;52.626;-8.668;2023-04-01T13:52:31;101655.72;;;14.17;100.00
64352;BME280;50680;52.626;-8.668;2023-04-01T13:55:22;101670.25;;;14.24;100.00
64352;BME280;50680;52.626;-8.668;2023-04-01T14:03:28;101677.56;;;14.49;100.00
64352;BME280;50680;52.626;-8.668;2023-04-01T14:06:17;101699.56;;;14.19;100.00
64352;BME280;50680;52.626;-8.668;2023-04-01T14:09:08;101708.78;;;14.12;100.00
64352;BME280;50680;52.626;-8.668;2023-04-01T14:14:46;101716.44;;;14.01;100.00
64352;BME280;50680;52.626;-8.668;2023-04-01T14:20:22;101719.69;;;14.20;100.00
64352;BME280;50680;52.626;-8.668;2023-04-01T14:31:43;101733.38;;;14.57;100.00
64352;BME280;50680;52.626;-8.668;2023-04-01T14:40:40;101746.44;;;14.60;100.00
64352;BME280;50680;52.626;-8.668;2023-04-01T14:47:08;101749.38;;;14.40;100.00
64352;BME280;50680;52.626;-8.668;2023-04-01T14:49:16;101749.38;;;14.24;100.00
64352;BME280;50680;52.626;-8.668;2023-04-01T14:51:46;101758.34;;;14.21;100.00
64352;BME280;50680;52.626;-8.668;2023-04-01T14:54:17;101778.66;;;14.35;100.00
64352;BME280;50680;52.626;-8.668;2023-04-01T14:56:51;101781.59;;;13.67;100.00
64352;BME280;50680;52.626;-8.668;2023-04-01T14:59:28;101791.47;;;13.63;100.00
64352;BME280;50680;52.626;-8.668;2023-04-01T15:04:50;101799.72;;;13.57;100.00
64352;BME280;50680;52.626;-8.668;2023-04-01T15:12:49;101797.63;;;13.64;100.00
64352;BME280;50680;52.626;-8.668;2023-04-01T15:18:22;101805.69;;;14.08;100.00
64352;BME280;50680;52.626;-8.668;2023-04-01T15:21:15;101806.16;;;14.31;100.00
64352;BME280;50680;52.626;-8.668;2023-04-01T15:34:16;101811.63;;;14.58;100.00
64352;BME280;50680;52.626;-8.668;2023-04-01T15:36:51;101815.91;;;14.45;100.00
64352;BME280;50680;52.626;-8.668;2023-04-01T15:41:59;101824.47;;;14.02;100.00
64352;BME280;50680;52.626;-8.668;2023-04-01T15:44:46;101830.69;;;14.17;100.00
64352;BME280;50680;52.626;-8.668;2023-04-01T15:52:38;101839.28;;;13.73;100.00
64352;BME280;50680;52.626;-8.668;2023-04-01T15:55:42;101849.72;;;14.06;100.00
64352;BME280;50680;52.626;-8.668;2023-04-01T16:06:48;101858.69;;;14.04;100.00
64352;BME280;50680;52.626;-8.668;2023-04-01T16:15:03;101861.31;;;14.04;100.00
64352;BME280;50680;52.626;-8.668;2023-04-01T16:20:22;101870.06;;;13.88;100.00
64352;BME280;50680;52.626;-8.668;2023-04-01T16:23:01;101880.44;;;13.76;100.00
64352;BME280;50680;52.626;-8.668;2023-04-01T16:29:12;101890.53;;;13.34;100.00
64352;BME280;50680;52.626;-8.668;2023-04-01T16:34:34;101902.78;;;13.35;100.00
64352;BME280;50680;52.626;-8.668;2023-04-01T16:39:43;101911.19;;;13.75;100.00
64352;BME280;50680;52.626;-8.668;2023-04-01T16:42:41;101905.88;;;13.43;100.00
64352;BME280;50680;52.626;-8.668;2023-04-01T16:47:54;101921.59;;;13.78;100.00
64352;BME280;50680;52.626;-8.668;2023-04-01T16:50:25;101922.28;;;13.82;100.00
64352;BME280;50680;52.626;-8.668;2023-04-01T16:55:52;101928.97;;;13.38;100.00
64352;BME280;50680;52.626;-8.668;2023-04-01T17:01:12;101916.06;;;13.14;100.00
64352;BME280;50680;52.626;-8.668;2023-04-01T17:03:46;101938.47;;;13.23;100.00
64352;BME280;50680;52.626;-8.668;2023-04-01T17:06:40;101954.81;;;13.12;100.00
64352;BME280;50680;52.626;-8.668;2023-04-01T17:15:32;101959.56;;;12.69;100.00
64352;BME280;50680;52.626;-8.668;2023-04-01T17:18:14;101968.31;;;12.51;100.00
64352;BME280;50680;52.626;-8.668;2023-04-01T17:21:02;101968.50;;;12.48;100.00
64352;BME280;50680;52.626;-8.668;2023-04-01T17:23:38;101970.19;;;12.30;100.00
64352;BME280;50680;52.626;-8.668;2023-04-01T17:35:05;102001.84;;;12.08;100.00
64352;BME280;50680;52.626;-8.668;2023-04-01T17:43:27;102003.88;;;12.40;100.00
64352;BME280;50680;52.626;-8.668;2023-04-01T17:45:58;102009.06;;;12.23;100.00
64352;BME280;50680;52.626;-8.668;2023-04-01T17:51:43;102018.16;;;12.54;100.00
64352;BME280;50680;52.626;-8.668;2023-04-01T18:08:38;102051.75;;;12.09;100.00
64352;BME280;50680;52.626;-8.668;2023-04-01T18:11:25;102059.72;;;11.87;100.00
64352;BME280;50680;52.626;-8.668;2023-04-01T18:17:03;102066.59;;;11.90;100.00
64352;BME280;50680;52.626;-8.668;2023-04-01T18:22:43;102084.97;;;11.91;100.00
64352;BME280;50680;52.626;-8.668;2023-04-01T18:25:44;102083.19;;;11.92;100.00
64352;BME280;50680;52.626;-8.668;2023-04-01T18:34:07;102105.88;;;11.94;100.00
64352;BME280;50680;52.626;-8.668;2023-04-01T18:36:53;102113.75;;;11.94;100.00
64352;BME280;50680;52.626;-8.668;2023-04-01T18:39:30;102124.19;;;11.96;100.00
64352;BME280;50680;52.626;-8.668;2023-04-01T18:42:08;102126.25;;;11.88;100.00
64352;BME280;50680;52.626;-8.668;2023-04-01T18:44:54;102134.09;;;11.89;100.00
64352;BME280;50680;52.626;-8.668;2023-04-01T18:53:49;102143.25;;;11.79;100.00
64352;BME280;50680;52.626;-8.668;2023-04-01T18:56:30;102145.97;;;11.55;100.00
64352;BME280;50680;52.626;-8.668;2023-04-01T18:59:03;102155.56;;;11.56;100.00
64352;BME280;50680;52.626;-8.668;2023-04-01T19:01:42;102155.47;;;11.59;100.00
64352;BME280;50680;52.626;-8.668;2023-04-01T19:10:06;102185.66;;;11.70;100.00
64352;BME280;50680;52.626;-8.668;2023-04-01T19:15:19;102202.44;;;11.67;100.00
64352;BME280;50680;52.626;-8.668;2023-04-01T19:18:11;102204.72;;;11.75;100.00
64352;BME280;50680;52.626;-8.668;2023-04-01T19:20:53;102204.88;;;11.72;100.00
64352;BME280;50680;52.626;-8.668;2023-04-01T19:23:47;102199.91;;;11.64;100.00
64352;BME280;50680;52.626;-8.668;2023-04-01T19:26:25;102206.50;;;11.52;100.00
64352;BME280;50680;52.626;-8.668;2023-04-01T19:35:11;102224.16;;;11.26;100.00
64352;BME280;50680;52.626;-8.668;2023-04-01T19:40:45;102236.22;;;11.07;100.00
64352;BME280;50680;52.626;-8.668;2023-04-01T19:46:29;102231.84;;;10.84;100.00
64352;BME280;50680;52.626;-8.668;2023-04-01T19:51:50;102249.56;;;10.77;100.00
64352;BME280;50680;52.626;-8.668;2023-04-01T20:07:52;102271.78;;;10.13;100.00
64352;BME280;50680;52.626;-8.668;2023-04-01T20:13:08;102306.03;;;10.09;100.00
64352;BME280;50680;52.626;-8.668;2023-04-01T20:15:44;102310.88;;;9.93;100.00
64352;BME280;50680;52.626;-8.668;2023-04-01T20:18:20;102323.25;;;9.88;100.00
64352;BME280;50680;52.626;-8.668;2023-04-01T20:20:59;102324.63;;;10.00;100.00
64352;BME280;50680;52.626;-8.668;2023-04-01T20:26:10;102339.00;;;10.16;100.00
64352;BME280;50680;52.626;-8.668;2023-04-01T20:28:57;102345.88;;;10.19;100.00
64352;BME280;50680;52.626;-8.668;2023-04-01T20:50:37;102365.28;;;9.85;100.00
64352;BME280;50680;52.626;-8.668;2023-04-01T20:53:16;102371.69;;;9.74;100.00
64352;BME280;50680;52.626;-8.668;2023-04-01T20:58:28;102378.97;;;9.93;100.00
64352;BME280;50680;52.626;-8.668;2023-04-01T21:01:08;102381.72;;;9.90;100.00
64352;BME280;50680;52.626;-8.668;2023-04-01T21:04:10;102393.38;;;9.79;100.00
64352;BME280;50680;52.626;-8.668;2023-04-01T21:06:48;102388.81;;;9.86;100.00
64352;BME280;50680;52.626;-8.668;2023-04-01T21:18:16;102393.41;;;9.78;100.00
64352;BME280;50680;52.626;-8.668;2023-04-01T21:20:48;102411.88;;;9.73;100.00
64352;BME280;50680;52.626;-8.668;2023-04-01T21:23:53;102414.88;;;9.59;100.00
64352;BME280;50680;52.626;-8.668;2023-04-01T21:32:19;102422.03;;;9.20;100.00
64352;BME280;50680;52.626;-8.668;2023-04-01T21:35:02;102422.22;;;9.14;100.00
64352;BME280;50680;52.626;-8.668;2023-04-01T21:40:32;102434.53;;;9.10;100.00
64352;BME280;50680;52.626;-8.668;2023-04-01T21:49:36;102442.16;;;8.83;100.00
64352;BME280;50680;52.626;-8.668;2023-04-01T21:55:10;102443.53;;;8.62;100.00
64352;BME280;50680;52.626;-8.668;2023-04-01T22:06:44;102460.72;;;8.32;100.00
64352;BME280;50680;52.626;-8.668;2023-04-01T22:09:35;102457.03;;;8.42;100.00
64352;BME280;50680;52.626;-8.668;2023-04-01T22:17:43;102455.47;;;7.91;100.00
64352;BME280;50680;52.626;-8.668;2023-04-01T22:20:48;102455.78;;;7.76;100.00
64352;BME280;50680;52.626;-8.668;2023-04-01T22:23:20;102459.75;;;7.49;100.00
64352;BME280;50680;52.626;-8.668;2023-04-01T22:26:24;102464.13;;;7.48;100.00
64352;BME280;50680;52.626;-8.668;2023-04-01T22:31:46;102463.84;;;7.15;100.00
64352;BME280;50680;52.626;-8.668;2023-04-01T22:34:27;102458.13;;;6.92;100.00